Norfolk, NE (68701)

10:14 PM CST on February 13, 2016 (GMT -0600)
North Norfolk | | Change Station
CLOSE
Current Station
Personal Weather Station
Location: Norfolk, NE
Elevation: 1614 ft
Nearby Weather Stations

Elev 1614 ft 42.05 °N, 97.44 °W | Updated 29 seconds ago

Overcast
Overcast
16.3 °F
Feels Like 2 °F
N
13.4
Wind Variable Wind from SE
Gusts 17.4 mph

Today
High -- | Low -- °F
--% Chance of Precip.
Yesterday
High -- | Low -- °F
Precip. -- in
Pressure 30.15 in
Visibility 10.0 miles
Clouds Scattered Clouds 4100 ft
Windchill 2 °F
Dew Point 5 °F
Humidity 60%
Rainfall 0.00 in
Snow Depth Not available.
7:28 AM 5:59 PM
Waxing Crescent, 37% visible
METAR KOFK 140356Z AUTO 14016KT 10SM SCT041 M08/M14 A3006 RMK AO2 SLP209 T10831139
Pressure 30.15 in
Visibility 10.0 miles
Clouds Scattered Clouds 4100 ft
Windchill 2 °F
Dew Point 5 °F
Humidity 60%
Rainfall 0.00 in
Snow Depth Not available.
7:28 AM 5:59 PM
Waxing Crescent, 37% visible
METAR KOFK 140356Z AUTO 14016KT 10SM SCT041 M08/M14 A3006 RMK AO2 SLP209 T10831139

10-Day Weather Forecast

Almanac

Astronomy

Feb. 13, 2016 Rise Set
Actual Time
Civil Twilight
Nautical Twilight
Astronomical Twilight
Moon
Length of Visible Light
Length of Day
Tomorrow will be .
, % of the Moon is Illuminated

Today's Extremes

State Highs State Lows

Community

WunderPhotos

Upload Photos

1,892,743 photos uploaded!

WunderBlog® & News

Nearby

Air Quality

  Air Quality AQ Index Pollutant
Not available.

Snow Depth

Station Depth Elevation

Earthquake Activity

City Distance Mag. Time & Date
Minimum magnitude displayed is 2.5.

Coastal Water Temperatures

Place Temperature

Stations

Nearby Weather Stations

Station Location Temp. Windchill Dew Point Humidity Wind Precip. Elev Updated Type
                   

Watches & Warnings

There are currently no watches in effect.